Littleton, MA

11:02 PM EST on January 16, 2017 (GMT -0500)
| | Change Station
Active Advisory: Winter Weather Advisory

Elev -9999 ft 0.00 °N, 0.00 °E | Updated 0 second ago

Partly Cloudy
Partly Cloudy
°F
Feels Like °F
N
Wind Variable Wind from North
Gusts mph

Today
High -- | Low -- °F
--% Chance of Precip.
Yesterday
High -- | Low -- °F
Precip. -- in
Pressure 30.26 in
Visibility 10.0 miles
Clouds Clear
Dew Point Not available.
Humidity Not available.
Rainfall --
Snow Depth Not available.
7:12 AM 4:39 PM
Waning Gibbous, 76% visible
METAR KBED 170356Z 21007KT 10SM CLR M01/M09 A3021 RMK AO2 SLP245 T10061089
Pressure 30.26 in
Visibility 10.0 miles
Clouds Clear
Dew Point Not available.
Humidity Not available.
Rainfall --
Snow Depth Not available.
7:12 AM 4:39 PM
Waning Gibbous, 76% visible
METAR KBED 170356Z 21007KT 10SM CLR M01/M09 A3021 RMK AO2 SLP245 T10061089

Get Your Daily Forecast Email!

Thanks for signing up!

Be on the lookout for a verification email in your inbox.

You'll start receiving the daily forecast at 8 AM.

×

10-Day Weather Forecast

Almanac

Astronomy

Jan. 16, 2017 Rise Set
Actual Time
Civil Twilight
Nautical Twilight
Astronomical Twilight
Moon
Length of Visible Light
Length of Day
Tomorrow will be .
, % of the Moon is Illuminated

Today's Extremes

State Highs State Lows

Community

WunderPhotos

Upload Photos

1,962,540 photos uploaded!

WunderBlog® & News

Nearby

Air Quality

  Air Quality AQ Index Pollutant
Not available.

Snow Depth

Station Depth Elevation

Earthquake Activity

City Distance Mag. Time & Date
Minimum magnitude displayed is 2.5.

Coastal Water Temperatures

Place Temperature

Stations

Nearby Weather Stations

Station Location Temp. Windchill Dew Point Humidity Wind Precip. Elev Updated Type
                   

Watches & Warnings

Winter Weather Advisory
Issued: 4:21 PM EST Jan. 16, 2017 – National Weather Service

... Winter Weather Advisory in effect from 1 PM Tuesday to 7 am
EST Wednesday...

The National Weather Service in Taunton has issued a Winter
Weather Advisory for snow... sleet... and perhaps a touch of
freezing rain... which is in effect from 1 PM Tuesday to 7 am
EST Wednesday.

* Locations... central Middlesex County.

* Hazard types... include snow... sleet... and perhaps a touch of
freezing rain.

* Accumulations... 2 to 4 inches of snow... except up to 5 inches
near the New Hampshire border.

* Timing... late afternoon Tuesday into early Wednesday.

* Impacts... wintry precipitation will likely result in hazardous
travel conditions on untreated roads... especially bridges...
and overpasses. Parking lots and sidewalks will become
slippery as well.

* Visibilities... one quarter to one half mile at times.

Precautionary/preparedness actions...

A Winter Weather Advisory means that periods of snow... sleet... or
freezing rain will cause travel difficulties. Be prepared for
slippery roads and limited visibilities... and use caution while
driving.